sensor_id;sensor_type;location;lat;lon;timestamp;pressure;altitude;pressure_sealevel;temperature;humidity
72409;BME280;60402;48.082;11.628;2023-01-31T00:01:30;95983.75;;;1.65;87.74
72409;BME280;60402;48.082;11.628;2023-01-31T00:04:00;95932.63;;;1.27;87.90
72409;BME280;60402;48.082;11.628;2023-01-31T00:06:34;95954.34;;;1.41;87.89
72409;BME280;60402;48.082;11.628;2023-01-31T00:09:02;96009.66;;;1.69;87.17
72409;BME280;60402;48.082;11.628;2023-01-31T00:11:29;96003.72;;;1.71;87.20
72409;BME280;60402;48.082;11.628;2023-01-31T00:13:54;95990.81;;;1.59;88.40
72409;BME280;60402;48.082;11.628;2023-01-31T00:16:21;95997.19;;;1.60;88.44
72409;BME280;60402;48.082;11.628;2023-01-31T00:18:47;95949.44;;;1.35;88.14
72409;BME280;60402;48.082;11.628;2023-01-31T00:21:14;95990.06;;;1.62;88.26
72409;BME280;60402;48.082;11.628;2023-01-31T00:23:42;95986.47;;;1.62;87.67
72409;BME280;60402;48.082;11.628;2023-01-31T00:26:16;95985.19;;;1.56;88.56
72409;BME280;60402;48.082;11.628;2023-01-31T00:28:43;95986.97;;;1.67;88.48
72409;BME280;60402;48.082;11.628;2023-01-31T00:31:09;95996.06;;;1.64;87.46
72409;BME280;60402;48.082;11.628;2023-01-31T00:33:36;95994.13;;;1.68;87.78
72409;BME280;60402;48.082;11.628;2023-01-31T00:36:04;96008.03;;;1.65;88.13
72409;BME280;60402;48.082;11.628;2023-01-31T00:38:29;95979.44;;;1.45;88.71
72409;BME280;60402;48.082;11.628;2023-01-31T00:40:55;95905.19;;;1.03;88.23
72409;BME280;60402;48.082;11.628;2023-01-31T00:43:20;96005.66;;;1.67;89.16
72409;BME280;60402;48.082;11.628;2023-01-31T00:45:46;96005.25;;;1.65;89.11
72409;BME280;60402;48.082;11.628;2023-01-31T00:48:11;95992.44;;;1.60;88.57
72409;BME280;60402;48.082;11.628;2023-01-31T00:50:37;95992.25;;;1.49;88.59
72409;BME280;60402;48.082;11.628;2023-01-31T00:53:02;95964.34;;;1.46;88.40
72409;BME280;60402;48.082;11.628;2023-01-31T00:55:28;95993.84;;;1.50;89.50
72409;BME280;60402;48.082;11.628;2023-01-31T00:57:53;95983.47;;;1.47;88.82
72409;BME280;60402;48.082;11.628;2023-01-31T01:00:19;95973.28;;;1.59;88.73
72409;BME280;60402;48.082;11.628;2023-01-31T01:02:44;95983.25;;;1.60;89.11
72409;BME280;60402;48.082;11.628;2023-01-31T01:05:09;95944.81;;;1.42;89.25
72409;BME280;60402;48.082;11.628;2023-01-31T01:07:35;95988.88;;;1.63;88.71
72409;BME280;60402;48.082;11.628;2023-01-31T01:10:00;95985.28;;;1.63;89.46
72409;BME280;60402;48.082;11.628;2023-01-31T01:12:26;95941.41;;;1.30;90.22
72409;BME280;60402;48.082;11.628;2023-01-31T01:14:51;95954.03;;;1.46;89.25
72409;BME280;60402;48.082;11.628;2023-01-31T01:17:16;95960.72;;;1.42;89.72
72409;BME280;60402;48.082;11.628;2023-01-31T01:19:42;95982.28;;;1.48;90.33
72409;BME280;60402;48.082;11.628;2023-01-31T01:22:07;95954.41;;;1.22;90.06
72409;BME280;60402;48.082;11.628;2023-01-31T01:24:32;95983.00;;;1.42;89.52
72409;BME280;60402;48.082;11.628;2023-01-31T01:26:58;95898.81;;;1.02;88.81
72409;BME280;60402;48.082;11.628;2023-01-31T01:29:23;95944.44;;;1.21;89.65
72409;BME280;60402;48.082;11.628;2023-01-31T01:31:49;95987.78;;;1.45;89.48
72409;BME280;60402;48.082;11.628;2023-01-31T01:34:15;96017.38;;;1.53;90.35
72409;BME280;60402;48.082;11.628;2023-01-31T01:36:41;96012.91;;;1.48;89.80
72409;BME280;60402;48.082;11.628;2023-01-31T01:39:08;95965.81;;;1.13;89.52
72409;BME280;60402;48.082;11.628;2023-01-31T01:41:35;96007.41;;;1.52;89.93
72409;BME280;60402;48.082;11.628;2023-01-31T01:44:04;95976.41;;;1.31;89.57
72409;BME280;60402;48.082;11.628;2023-01-31T01:46:47;96004.88;;;1.43;88.55
72409;BME280;60402;48.082;11.628;2023-01-31T01:49:21;96021.41;;;1.56;89.43
72409;BME280;60402;48.082;11.628;2023-01-31T01:51:49;96004.56;;;1.48;88.46
72409;BME280;60402;48.082;11.628;2023-01-31T01:54:20;96018.31;;;1.61;89.26
72409;BME280;60402;48.082;11.628;2023-01-31T01:56:51;96008.38;;;1.37;89.17
72409;BME280;60402;48.082;11.628;2023-01-31T01:59:28;95998.81;;;1.38;88.60
72409;BME280;60402;48.082;11.628;2023-01-31T02:01:55;96003.28;;;1.42;88.62
72409;BME280;60402;48.082;11.628;2023-01-31T02:04:25;96006.56;;;1.48;88.56
72409;BME280;60402;48.082;11.628;2023-01-31T02:06:51;95984.22;;;1.21;89.20
72409;BME280;60402;48.082;11.628;2023-01-31T02:09:31;96020.41;;;1.44;88.67
72409;BME280;60402;48.082;11.628;2023-01-31T02:12:00;95999.31;;;1.43;88.03
72409;BME280;60402;48.082;11.628;2023-01-31T02:14:25;95986.34;;;1.28;88.22
72409;BME280;60402;48.082;11.628;2023-01-31T02:16:51;96019.13;;;1.38;89.28
72409;BME280;60402;48.082;11.628;2023-01-31T02:19:47;96025.19;;;1.44;88.67
72409;BME280;60402;48.082;11.628;2023-01-31T02:28:15;96031.22;;;1.26;89.28
72409;BME280;60402;48.082;11.628;2023-01-31T02:36:33;96052.72;;;1.49;89.45
72409;BME280;60402;48.082;11.628;2023-01-31T02:41:44;96047.03;;;1.42;89.54
72409;BME280;60402;48.082;11.628;2023-01-31T02:44:46;96017.19;;;1.19;89.68
72409;BME280;60402;48.082;11.628;2023-01-31T02:50:30;96062.25;;;1.25;90.84
72409;BME280;60402;48.082;11.628;2023-01-31T02:53:13;96042.34;;;1.23;90.00
72409;BME280;60402;48.082;11.628;2023-01-31T02:55:48;96060.44;;;1.36;90.05
72409;BME280;60402;48.082;11.628;2023-01-31T02:58:36;96034.78;;;1.23;90.25
72409;BME280;60402;48.082;11.628;2023-01-31T03:01:04;96059.94;;;1.31;90.61
72409;BME280;60402;48.082;11.628;2023-01-31T03:03:35;96055.38;;;1.19;90.29
72409;BME280;60402;48.082;11.628;2023-01-31T03:11:25;96049.00;;;1.18;89.98
72409;BME280;60402;48.082;11.628;2023-01-31T03:14:23;96082.59;;;1.29;89.07
72409;BME280;60402;48.082;11.628;2023-01-31T03:17:31;96045.47;;;1.21;89.02
72409;BME280;60402;48.082;11.628;2023-01-31T03:20:26;96068.22;;;1.27;89.62
72409;BME280;60402;48.082;11.628;2023-01-31T03:22:57;96031.75;;;1.09;89.51
72409;BME280;60402;48.082;11.628;2023-01-31T03:25:26;96007.53;;;0.90;88.91
72409;BME280;60402;48.082;11.628;2023-01-31T03:27:55;96069.56;;;1.33;89.55
72409;BME280;60402;48.082;11.628;2023-01-31T03:30:30;96068.53;;;1.22;89.39
72409;BME280;60402;48.082;11.628;2023-01-31T03:33:05;96074.94;;;1.22;88.30
72409;BME280;60402;48.082;11.628;2023-01-31T03:35:34;96073.97;;;1.15;88.89
72409;BME280;60402;48.082;11.628;2023-01-31T03:38:15;96091.63;;;1.22;89.02
72409;BME280;60402;48.082;11.628;2023-01-31T03:40:49;96086.59;;;1.09;89.23
72409;BME280;60402;48.082;11.628;2023-01-31T03:43:49;96040.63;;;0.95;88.39
72409;BME280;60402;48.082;11.628;2023-01-31T03:46:15;96044.22;;;0.96;87.90
72409;BME280;60402;48.082;11.628;2023-01-31T03:48:45;96088.22;;;1.10;89.35
72409;BME280;60402;48.082;11.628;2023-01-31T03:51:18;96080.28;;;1.12;88.78
72409;BME280;60402;48.082;11.628;2023-01-31T03:53:49;95992.81;;;0.47;88.65
72409;BME280;60402;48.082;11.628;2023-01-31T03:56:44;95996.69;;;0.43;88.31
72409;BME280;60402;48.082;11.628;2023-01-31T03:59:15;96097.16;;;0.99;88.91
72409;BME280;60402;48.082;11.628;2023-01-31T04:01:44;96084.06;;;0.81;89.28
72409;BME280;60402;48.082;11.628;2023-01-31T04:04:20;96069.63;;;0.75;89.54
72409;BME280;60402;48.082;11.628;2023-01-31T04:06:47;96070.72;;;0.70;88.97
72409;BME280;60402;48.082;11.628;2023-01-31T04:09:12;96074.53;;;0.82;88.72
72409;BME280;60402;48.082;11.628;2023-01-31T04:11:40;96095.63;;;0.83;89.47
72409;BME280;60402;48.082;11.628;2023-01-31T04:14:07;96055.88;;;0.43;89.64
72409;BME280;60402;48.082;11.628;2023-01-31T04:16:32;96109.91;;;0.81;89.74
72409;BME280;60402;48.082;11.628;2023-01-31T04:18:58;96103.25;;;0.66;89.85
72409;BME280;60402;48.082;11.628;2023-01-31T04:21:23;96100.47;;;0.66;89.40
72409;BME280;60402;48.082;11.628;2023-01-31T04:23:48;96101.38;;;0.55;90.40
72409;BME280;60402;48.082;11.628;2023-01-31T04:26:14;96091.66;;;0.45;90.62
72409;BME280;60402;48.082;11.628;2023-01-31T04:28:39;96025.50;;;0.15;90.32
72409;BME280;60402;48.082;11.628;2023-01-31T04:31:05;96126.00;;;0.72;89.78
72409;BME280;60402;48.082;11.628;2023-01-31T04:33:30;96092.44;;;0.45;90.28
72409;BME280;60402;48.082;11.628;2023-01-31T04:35:56;96126.44;;;0.74;90.38
72409;BME280;60402;48.082;11.628;2023-01-31T04:38:22;96088.06;;;0.44;90.17
72409;BME280;60402;48.082;11.628;2023-01-31T04:40:47;96129.72;;;0.60;91.19
72409;BME280;60402;48.082;11.628;2023-01-31T04:43:12;96097.59;;;0.43;90.13
72409;BME280;60402;48.082;11.628;2023-01-31T04:45:38;96113.97;;;0.48;90.67
72409;BME280;60402;48.082;11.628;2023-01-31T04:48:03;96138.44;;;0.78;89.42
72409;BME280;60402;48.082;11.628;2023-01-31T04:50:29;96058.63;;;0.24;90.08
72409;BME280;60402;48.082;11.628;2023-01-31T04:52:54;96140.13;;;0.83;89.68
72409;BME280;60402;48.082;11.628;2023-01-31T04:55:20;96135.22;;;0.76;90.58
72409;BME280;60402;48.082;11.628;2023-01-31T04:57:46;96149.66;;;0.82;89.59
72409;BME280;60402;48.082;11.628;2023-01-31T05:00:12;96154.03;;;0.83;89.26
72409;BME280;60402;48.082;11.628;2023-01-31T05:02:37;96137.03;;;0.68;89.63
72409;BME280;60402;48.082;11.628;2023-01-31T05:05:04;96150.22;;;0.71;89.18
72409;BME280;60402;48.082;11.628;2023-01-31T05:07:29;96162.69;;;0.77;90.26
72409;BME280;60402;48.082;11.628;2023-01-31T05:09:55;96145.19;;;0.77;89.82
72409;BME280;60402;48.082;11.628;2023-01-31T05:12:20;96150.59;;;0.70;89.80
72409;BME280;60402;48.082;11.628;2023-01-31T05:14:45;96154.25;;;0.74;90.06
72409;BME280;60402;48.082;11.628;2023-01-31T05:17:11;96162.25;;;0.75;89.87
72409;BME280;60402;48.082;11.628;2023-01-31T05:19:36;96146.28;;;0.72;89.61
72409;BME280;60402;48.082;11.628;2023-01-31T05:22:01;96168.31;;;0.81;89.13
72409;BME280;60402;48.082;11.628;2023-01-31T05:24:29;96174.41;;;0.87;89.19
72409;BME280;60402;48.082;11.628;2023-01-31T05:26:56;96173.72;;;0.74;89.29
72409;BME280;60402;48.082;11.628;2023-01-31T05:29:27;96176.50;;;0.74;89.59
72409;BME280;60402;48.082;11.628;2023-01-31T05:31:54;96176.06;;;0.72;89.31
72409;BME280;60402;48.082;11.628;2023-01-31T05:34:20;96182.94;;;0.59;90.24
72409;BME280;60402;48.082;11.628;2023-01-31T05:36:46;96189.00;;;0.64;89.68
72409;BME280;60402;48.082;11.628;2023-01-31T05:39:12;96167.16;;;0.47;90.39
72409;BME280;60402;48.082;11.628;2023-01-31T05:41:37;96172.56;;;0.40;90.28
72409;BME280;60402;48.082;11.628;2023-01-31T05:44:02;96178.44;;;0.54;89.53
72409;BME280;60402;48.082;11.628;2023-01-31T05:46:28;96160.84;;;0.31;90.56
72409;BME280;60402;48.082;11.628;2023-01-31T05:48:53;96150.50;;;0.31;90.61
72409;BME280;60402;48.082;11.628;2023-01-31T05:51:18;96179.44;;;0.46;89.74
72409;BME280;60402;48.082;11.628;2023-01-31T05:53:44;96195.31;;;0.61;90.17
72409;BME280;60402;48.082;11.628;2023-01-31T05:56:09;96192.72;;;0.53;89.79
72409;BME280;60402;48.082;11.628;2023-01-31T05:58:34;96204.88;;;0.64;89.60
72409;BME280;60402;48.082;11.628;2023-01-31T06:01:00;96186.00;;;0.54;89.42
72409;BME280;60402;48.082;11.628;2023-01-31T06:03:25;96185.09;;;0.49;89.95
72409;BME280;60402;48.082;11.628;2023-01-31T06:05:53;96194.09;;;0.43;89.93
72409;BME280;60402;48.082;11.628;2023-01-31T06:08:18;96205.88;;;0.56;90.02
72409;BME280;60402;48.082;11.628;2023-01-31T06:10:43;96193.44;;;0.49;89.81
72409;BME280;60402;48.082;11.628;2023-01-31T06:13:09;96191.38;;;0.46;90.26
72409;BME280;60402;48.082;11.628;2023-01-31T06:15:56;96194.66;;;0.68;89.28
72409;BME280;60402;48.082;11.628;2023-01-31T06:18:22;96166.06;;;0.51;89.15
72409;BME280;60402;48.082;11.628;2023-01-31T06:20:47;96192.44;;;0.58;89.56
72409;BME280;60402;48.082;11.628;2023-01-31T06:23:12;96192.06;;;0.59;89.41
72409;BME280;60402;48.082;11.628;2023-01-31T06:25:38;96171.63;;;0.51;88.94
72409;BME280;60402;48.082;11.628;2023-01-31T06:28:03;96162.94;;;0.53;88.51
72409;BME280;60402;48.082;11.628;2023-01-31T06:30:30;96173.50;;;0.63;88.46
72409;BME280;60402;48.082;11.628;2023-01-31T06:32:58;96167.50;;;0.61;88.12
72409;BME280;60402;48.082;11.628;2023-01-31T06:35:23;96179.56;;;0.69;88.79
72409;BME280;60402;48.082;11.628;2023-01-31T06:37:48;96179.25;;;0.55;88.99
72409;BME280;60402;48.082;11.628;2023-01-31T06:40:14;96175.91;;;0.65;88.05
72409;BME280;60402;48.082;11.628;2023-01-31T06:42:39;96180.88;;;0.75;87.32
72409;BME280;60402;48.082;11.628;2023-01-31T06:45:05;96191.19;;;0.55;88.30
72409;BME280;60402;48.082;11.628;2023-01-31T06:47:30;96203.88;;;0.72;87.84
72409;BME280;60402;48.082;11.628;2023-01-31T06:49:55;96196.78;;;0.74;87.46
72409;BME280;60402;48.082;11.628;2023-01-31T06:52:21;96185.13;;;0.69;87.27
72409;BME280;60402;48.082;11.628;2023-01-31T06:54:46;96193.47;;;0.69;87.23
72409;BME280;60402;48.082;11.628;2023-01-31T06:57:11;96194.81;;;0.75;87.10
72409;BME280;60402;48.082;11.628;2023-01-31T06:59:36;96180.28;;;0.66;86.65
72409;BME280;60402;48.082;11.628;2023-01-31T07:02:02;96209.00;;;0.70;87.22
72409;BME280;60402;48.082;11.628;2023-01-31T07:04:27;96209.00;;;0.70;86.70
72409;BME280;60402;48.082;11.628;2023-01-31T07:06:52;96217.19;;;0.63;86.98
72409;BME280;60402;48.082;11.628;2023-01-31T07:09:18;96227.31;;;0.71;86.57
72409;BME280;60402;48.082;11.628;2023-01-31T07:11:43;96229.66;;;0.69;86.77
72409;BME280;60402;48.082;11.628;2023-01-31T07:14:08;96222.16;;;0.54;86.95
72409;BME280;60402;48.082;11.628;2023-01-31T07:16:34;96229.28;;;0.70;85.84
72409;BME280;60402;48.082;11.628;2023-01-31T07:19:01;96216.59;;;0.54;86.07
72409;BME280;60402;48.082;11.628;2023-01-31T07:21:27;96213.31;;;0.67;85.98
72409;BME280;60402;48.082;11.628;2023-01-31T07:23:53;96207.16;;;0.58;86.13
72409;BME280;60402;48.082;11.628;2023-01-31T07:26:19;96205.31;;;0.66;85.17
72409;BME280;60402;48.082;11.628;2023-01-31T07:28:44;96224.38;;;0.64;86.68
72409;BME280;60402;48.082;11.628;2023-01-31T07:31:13;96225.41;;;0.75;85.94
72409;BME280;60402;48.082;11.628;2023-01-31T07:33:39;96225.84;;;0.77;85.22
72409;BME280;60402;48.082;11.628;2023-01-31T07:36:06;96188.22;;;0.83;86.28
72409;BME280;60402;48.082;11.628;2023-01-31T07:38:32;96209.66;;;1.18;84.34
72409;BME280;60402;48.082;11.628;2023-01-31T07:41:02;96210.69;;;1.29;83.78
72409;BME280;60402;48.082;11.628;2023-01-31T07:43:27;96193.50;;;1.27;83.64
72409;BME280;60402;48.082;11.628;2023-01-31T07:45:53;96211.63;;;1.56;82.57
72409;BME280;60402;48.082;11.628;2023-01-31T07:48:18;96189.66;;;1.97;80.80
72409;BME280;60402;48.082;11.628;2023-01-31T07:50:49;96202.00;;;2.68;78.17
72409;BME280;60402;48.082;11.628;2023-01-31T07:53:14;96212.66;;;3.19;74.56
72409;BME280;60402;48.082;11.628;2023-01-31T07:55:40;96187.22;;;3.95;71.02
72409;BME280;60402;48.082;11.628;2023-01-31T07:58:05;96203.38;;;3.75;70.59
72409;BME280;60402;48.082;11.628;2023-01-31T08:00:30;96200.38;;;4.87;67.17
72409;BME280;60402;48.082;11.628;2023-01-31T08:03:25;96191.84;;;5.38;64.43
72409;BME280;60402;48.082;11.628;2023-01-31T08:06:07;96213.41;;;6.32;60.27
72409;BME280;60402;48.082;11.628;2023-01-31T08:08:34;96213.38;;;7.00;59.33
72409;BME280;60402;48.082;11.628;2023-01-31T08:11:00;96213.75;;;8.22;54.33
72409;BME280;60402;48.082;11.628;2023-01-31T08:13:25;96215.53;;;9.13;51.17
72409;BME280;60402;48.082;11.628;2023-01-31T08:15:51;96197.28;;;9.93;48.68
72409;BME280;60402;48.082;11.628;2023-01-31T08:18:17;96218.06;;;10.06;47.30
72409;BME280;60402;48.082;11.628;2023-01-31T08:20:43;96216.88;;;10.07;47.63
72409;BME280;60402;48.082;11.628;2023-01-31T08:23:08;96179.94;;;8.29;50.85
72409;BME280;60402;48.082;11.628;2023-01-31T08:25:33;96185.47;;;9.71;48.97
72409;BME280;60402;48.082;11.628;2023-01-31T08:28:00;96201.09;;;9.04;49.25
72409;BME280;60402;48.082;11.628;2023-01-31T08:30:26;96222.81;;;9.03;49.81
72409;BME280;60402;48.082;11.628;2023-01-31T08:32:55;96228.75;;;8.71;51.74
72409;BME280;60402;48.082;11.628;2023-01-31T08:35:20;96222.25;;;8.78;50.18
72409;BME280;60402;48.082;11.628;2023-01-31T08:37:45;96210.66;;;8.02;51.60
72409;BME280;60402;48.082;11.628;2023-01-31T08:40:11;96214.78;;;9.46;50.33
72409;BME280;60402;48.082;11.628;2023-01-31T08:42:36;96196.19;;;9.11;48.89
72409;BME280;60402;48.082;11.628;2023-01-31T08:45:02;96236.34;;;9.98;48.65
72409;BME280;60402;48.082;11.628;2023-01-31T08:47:28;96217.00;;;9.25;49.47
72409;BME280;60402;48.082;11.628;2023-01-31T08:49:53;96230.69;;;10.32;46.04
72409;BME280;60402;48.082;11.628;2023-01-31T08:52:18;96225.09;;;11.53;44.56
72409;BME280;60402;48.082;11.628;2023-01-31T08:54:43;96222.94;;;12.76;44.02
72409;BME280;60402;48.082;11.628;2023-01-31T08:57:09;96220.81;;;12.81;41.72
72409;BME280;60402;48.082;11.628;2023-01-31T08:59:34;96235.88;;;13.10;39.75
72409;BME280;60402;48.082;11.628;2023-01-31T09:02:01;96217.59;;;12.78;40.65
72409;BME280;60402;48.082;11.628;2023-01-31T09:04:26;96216.44;;;14.03;38.47
72409;BME280;60402;48.082;11.628;2023-01-31T09:06:51;96231.63;;;14.93;35.84
72409;BME280;60402;48.082;11.628;2023-01-31T09:09:18;96211.91;;;15.11;37.02
72409;BME280;60402;48.082;11.628;2023-01-31T09:11:44;96219.56;;;15.62;34.61
72409;BME280;60402;48.082;11.628;2023-01-31T09:14:09;96218.84;;;14.17;36.22
72409;BME280;60402;48.082;11.628;2023-01-31T09:16:34;96197.56;;;15.15;35.08
72409;BME280;60402;48.082;11.628;2023-01-31T09:19:00;96173.94;;;14.25;36.08
72409;BME280;60402;48.082;11.628;2023-01-31T09:21:25;96214.34;;;15.47;34.23
72409;BME280;60402;48.082;11.628;2023-01-31T09:23:58;96205.09;;;15.56;34.14
72409;BME280;60402;48.082;11.628;2023-01-31T09:26:26;96181.44;;;13.77;35.94
72409;BME280;60402;48.082;11.628;2023-01-31T09:28:52;96196.16;;;13.43;36.92
72409;BME280;60402;48.082;11.628;2023-01-31T09:31:19;96223.59;;;10.74;41.50
72409;BME280;60402;48.082;11.628;2023-01-31T09:33:45;96225.94;;;10.53;42.45
72409;BME280;60402;48.082;11.628;2023-01-31T09:36:19;96224.63;;;9.65;44.26
72409;BME280;60402;48.082;11.628;2023-01-31T09:38:45;96233.75;;;8.42;48.01
72409;BME280;60402;48.082;11.628;2023-01-31T09:41:33;96240.53;;;8.55;48.26
72409;BME280;60402;48.082;11.628;2023-01-31T09:44:14;96245.50;;;7.10;51.16
72409;BME280;60402;48.082;11.628;2023-01-31T09:46:44;96239.00;;;7.41;50.99
72409;BME280;60402;48.082;11.628;2023-01-31T09:49:17;96229.78;;;6.16;54.11
72409;BME280;60402;48.082;11.628;2023-01-31T09:51:43;96200.78;;;5.69;55.34
72409;BME280;60402;48.082;11.628;2023-01-31T09:54:18;96227.03;;;6.34;54.92
72409;BME280;60402;48.082;11.628;2023-01-31T09:56:53;96240.72;;;6.75;53.54
72409;BME280;60402;48.082;11.628;2023-01-31T09:59:34;96238.34;;;8.14;51.24
72409;BME280;60402;48.082;11.628;2023-01-31T10:02:15;96234.41;;;8.67;48.61
72409;BME280;60402;48.082;11.628;2023-01-31T10:05:10;96234.25;;;8.26;48.91
72409;BME280;60402;48.082;11.628;2023-01-31T10:10:38;96226.25;;;6.90;53.00
72409;BME280;60402;48.082;11.628;2023-01-31T10:13:30;96239.41;;;6.11;55.05
72409;BME280;60402;48.082;11.628;2023-01-31T10:18:51;96225.16;;;5.58;57.09
72409;BME280;60402;48.082;11.628;2023-01-31T10:21:21;96223.00;;;5.23;57.73
72409;BME280;60402;48.082;11.628;2023-01-31T10:23:59;96219.38;;;5.19;58.50
72409;BME280;60402;48.082;11.628;2023-01-31T10:26:30;96214.59;;;5.26;57.89
72409;BME280;60402;48.082;11.628;2023-01-31T10:29:03;96205.75;;;5.13;58.37
72409;BME280;60402;48.082;11.628;2023-01-31T10:31:43;96195.03;;;4.68;59.86
72409;BME280;60402;48.082;11.628;2023-01-31T10:34:18;96179.69;;;4.51;60.48
72409;BME280;60402;48.082;11.628;2023-01-31T10:36:54;96193.31;;;4.52;60.50
72409;BME280;60402;48.082;11.628;2023-01-31T10:42:02;96195.38;;;4.59;61.20
72409;BME280;60402;48.082;11.628;2023-01-31T10:47:17;96195.66;;;4.47;61.87
72409;BME280;60402;48.082;11.628;2023-01-31T10:49:45;96152.16;;;4.08;61.76
72409;BME280;60402;48.082;11.628;2023-01-31T10:57:49;96160.81;;;3.93;64.78
72409;BME280;60402;48.082;11.628;2023-01-31T11:00:20;96183.91;;;4.27;63.82
72409;BME280;60402;48.082;11.628;2023-01-31T11:02:47;96187.81;;;4.19;64.15
72409;BME280;60402;48.082;11.628;2023-01-31T11:05:16;96176.63;;;4.15;64.86
72409;BME280;60402;48.082;11.628;2023-01-31T11:07:43;96161.78;;;4.11;63.79
72409;BME280;60402;48.082;11.628;2023-01-31T11:10:28;96152.88;;;3.98;64.11
72409;BME280;60402;48.082;11.628;2023-01-31T11:12:56;96168.06;;;3.97;64.39
72409;BME280;60402;48.082;11.628;2023-01-31T11:15:27;96166.00;;;3.91;65.30
72409;BME280;60402;48.082;11.628;2023-01-31T11:17:58;96145.81;;;3.71;65.72
72409;BME280;60402;48.082;11.628;2023-01-31T11:20:36;96107.34;;;3.57;65.73
72409;BME280;60402;48.082;11.628;2023-01-31T11:23:42;96053.63;;;3.30;65.87
72409;BME280;60402;48.082;11.628;2023-01-31T11:26:32;96141.44;;;3.70;67.06
72409;BME280;60402;48.082;11.628;2023-01-31T11:29:17;96112.88;;;3.50;67.48
72409;BME280;60402;48.082;11.628;2023-01-31T11:32:02;96032.13;;;3.00;67.00
72409;BME280;60402;48.082;11.628;2023-01-31T11:34:34;95964.66;;;2.58;67.58
72409;BME280;60402;48.082;11.628;2023-01-31T11:37:39;95997.13;;;2.73;68.38
72409;BME280;60402;48.082;11.628;2023-01-31T11:40:36;96104.75;;;3.34;69.25
72409;BME280;60402;48.082;11.628;2023-01-31T11:43:04;96102.09;;;3.52;68.25
72409;BME280;60402;48.082;11.628;2023-01-31T11:45:32;95969.91;;;2.63;68.53
72409;BME280;60402;48.082;11.628;2023-01-31T11:48:13;96095.72;;;3.51;68.93
72409;BME280;60402;48.082;11.628;2023-01-31T11:51:01;95955.25;;;2.69;69.74
72409;BME280;60402;48.082;11.628;2023-01-31T11:53:47;96010.78;;;3.19;68.63
72409;BME280;60402;48.082;11.628;2023-01-31T11:56:18;96089.41;;;3.58;70.06
72409;BME280;60402;48.082;11.628;2023-01-31T11:59:24;96084.97;;;3.53;69.80
72409;BME280;60402;48.082;11.628;2023-01-31T12:05:12;95960.34;;;3.01;68.78
72409;BME280;60402;48.082;11.628;2023-01-31T12:07:47;96022.72;;;3.53;68.54
72409;BME280;60402;48.082;11.628;2023-01-31T12:10:34;96064.75;;;3.71;68.63
72409;BME280;60402;48.082;11.628;2023-01-31T12:13:10;96040.41;;;3.71;68.38
72409;BME280;60402;48.082;11.628;2023-01-31T12:16:05;96031.22;;;3.67;68.60
72409;BME280;60402;48.082;11.628;2023-01-31T12:28:27;95922.22;;;3.19;67.82
72409;BME280;60402;48.082;11.628;2023-01-31T12:37:06;96040.53;;;3.85;68.79
72409;BME280;60402;48.082;11.628;2023-01-31T12:54:43;96022.94;;;3.85;68.37
72409;BME280;60402;48.082;11.628;2023-01-31T13:10:42;95978.91;;;3.71;70.13
72409;BME280;60402;48.082;11.628;2023-01-31T13:13:16;96011.41;;;3.90;69.22
72409;BME280;60402;48.082;11.628;2023-01-31T13:22:55;95849.31;;;3.31;68.43
72409;BME280;60402;48.082;11.628;2023-01-31T13:29:00;95955.59;;;4.08;68.86
72409;BME280;60402;48.082;11.628;2023-01-31T13:31:31;95987.78;;;4.43;66.78
72409;BME280;60402;48.082;11.628;2023-01-31T13:34:17;95986.22;;;4.52;66.34
72409;BME280;60402;48.082;11.628;2023-01-31T13:36:51;95975.72;;;4.35;67.78
72409;BME280;60402;48.082;11.628;2023-01-31T13:39:28;95957.38;;;4.38;68.52
72409;BME280;60402;48.082;11.628;2023-01-31T13:41:55;95950.56;;;4.39;67.56
72409;BME280;60402;48.082;11.628;2023-01-31T13:44:20;95915.31;;;4.23;64.58
72409;BME280;60402;48.082;11.628;2023-01-31T13:46:49;95954.06;;;4.18;65.68
72409;BME280;60402;48.082;11.628;2023-01-31T13:49:24;95943.66;;;4.15;66.12
72409;BME280;60402;48.082;11.628;2023-01-31T13:51:56;95886.31;;;3.76;65.78
72409;BME280;60402;48.082;11.628;2023-01-31T13:54:31;95914.25;;;3.73;67.16
72409;BME280;60402;48.082;11.628;2023-01-31T13:56:58;95943.84;;;3.81;68.24
72409;BME280;60402;48.082;11.628;2023-01-31T13:59:27;95927.06;;;3.77;67.60
72409;BME280;60402;48.082;11.628;2023-01-31T14:01:54;95953.03;;;3.78;68.20
72409;BME280;60402;48.082;11.628;2023-01-31T14:04:23;95910.94;;;3.53;68.53
72409;BME280;60402;48.082;11.628;2023-01-31T14:09:25;95944.06;;;3.54;68.95
72409;BME280;60402;48.082;11.628;2023-01-31T14:11:54;95916.03;;;3.40;69.88
72409;BME280;60402;48.082;11.628;2023-01-31T14:16:52;95960.53;;;3.70;69.60
72409;BME280;60402;48.082;11.628;2023-01-31T14:21:49;95945.53;;;3.38;69.83
72409;BME280;60402;48.082;11.628;2023-01-31T14:27:19;95924.38;;;3.37;70.75
72409;BME280;60402;48.082;11.628;2023-01-31T14:29:47;95932.00;;;3.43;70.10
72409;BME280;60402;48.082;11.628;2023-01-31T14:32:15;95908.28;;;3.23;69.93
72409;BME280;60402;48.082;11.628;2023-01-31T14:34:48;95915.91;;;3.26;69.68
72409;BME280;60402;48.082;11.628;2023-01-31T14:40:06;95928.03;;;3.48;68.94
72409;BME280;60402;48.082;11.628;2023-01-31T14:43:03;95907.94;;;3.28;68.84
72409;BME280;60402;48.082;11.628;2023-01-31T14:53:41;95883.84;;;3.09;69.18
72409;BME280;60402;48.082;11.628;2023-01-31T14:58:53;95918.38;;;3.38;69.68
72409;BME280;60402;48.082;11.628;2023-01-31T15:01:20;95897.09;;;3.16;70.17
72409;BME280;60402;48.082;11.628;2023-01-31T15:03:54;95898.00;;;3.30;69.70
72409;BME280;60402;48.082;11.628;2023-01-31T15:06:29;95919.53;;;3.30;69.65
72409;BME280;60402;48.082;11.628;2023-01-31T15:11:40;95929.88;;;3.26;70.77
72409;BME280;60402;48.082;11.628;2023-01-31T15:14:28;95919.91;;;3.28;69.60
72409;BME280;60402;48.082;11.628;2023-01-31T15:17:04;95920.22;;;3.16;70.23
72409;BME280;60402;48.082;11.628;2023-01-31T15:19:40;95898.13;;;3.00;70.16
72409;BME280;60402;48.082;11.628;2023-01-31T15:22:09;95917.03;;;3.18;69.66